Aviation Digital Data Service (ADDS)

Output produced by TAFs form (1528 UTC 29 April 2017)
found at http://aviationweather.gov/adds/tafs/
 
KLVS 291146Z 2912/3012 02013KT 2SM -SN BR OVC015 
     TEMPO 2912/2915 3/4SM -SN BR OVC007 
     FM291500 01018G28KT 2SM -SN BR OVC007 
     FM292000 01015KT 5SM -SN BR BKN009 OVC019 
     FM300000 36013KT P6SM VCSH BKN030 
     FM300700 28010KT P6SM BKN035 OVC100